createdAt,value
2023-12-20T00:01:00.867Z,5.81
2023-12-20T00:02:22.309Z,7.87
2023-12-20T00:03:43.743Z,4.18
2023-12-20T00:05:06.123Z,6.86
2023-12-20T00:06:27.344Z,6.68
2023-12-20T00:07:49.267Z,3.36
2023-12-20T00:09:11.275Z,5.30
2023-12-20T00:10:33.121Z,8.64
2023-12-20T00:11:54.986Z,7.20
2023-12-20T00:13:16.475Z,6.42
2023-12-20T00:14:38.492Z,4.62
2023-12-20T00:16:00.474Z,5.77
2023-12-20T00:17:22.242Z,5.49
2023-12-20T00:18:43.531Z,4.89
2023-12-20T00:20:05.748Z,5.98
2023-12-20T00:21:27.532Z,3.54
2023-12-20T00:22:49.165Z,5.49
2023-12-20T00:24:10.706Z,3.31
2023-12-20T00:25:32.074Z,4.15
2023-12-20T00:26:53.821Z,4.54
2023-12-20T00:28:15.165Z,4.11
2023-12-20T00:29:36.711Z,3.73
2023-12-20T00:30:58.584Z,2.98
2023-12-20T00:32:21.069Z,4.09
2023-12-20T00:33:42.530Z,6.86
2023-12-20T00:35:04.439Z,4.48
2023-12-20T00:36:27.403Z,4.37
2023-12-20T00:37:48.810Z,4.03
2023-12-20T00:39:10.183Z,4.79
2023-12-20T00:40:31.804Z,5.72
2023-12-20T00:41:52.981Z,4.36
2023-12-20T00:43:14.605Z,3.78
2023-12-20T00:44:36.097Z,3.72
2023-12-20T00:45:58.053Z,4.01
2023-12-20T00:47:19.105Z,4.08
2023-12-20T00:48:40.453Z,2.64
2023-12-20T00:50:02.088Z,2.78
2023-12-20T00:51:23.254Z,2.81
2023-12-20T00:53:55.536Z,2.55
2023-12-20T00:55:17.162Z,2.57
2023-12-20T00:56:38.388Z,3.47
2023-12-20T00:57:59.505Z,1.99
2023-12-20T00:59:20.893Z,3.52
2023-12-20T01:00:47.500Z,2.19
2023-12-20T01:02:08.806Z,2.87
2023-12-20T01:03:30.221Z,2.37
2023-12-20T01:04:51.833Z,2.94
2023-12-20T01:06:14.215Z,2.56
2023-12-20T01:07:35.961Z,4.00
2023-12-20T01:08:57.326Z,4.61
2023-12-20T01:10:20.686Z,3.32
2023-12-20T01:11:42.057Z,3.23
2023-12-20T01:13:03.384Z,3.73
2023-12-20T01:14:24.447Z,2.91
2023-12-20T01:15:46.308Z,2.47
2023-12-20T01:17:08.262Z,3.11
2023-12-20T01:18:29.569Z,2.60
2023-12-20T01:19:51.087Z,2.36
2023-12-20T01:21:12.922Z,4.03
2023-12-20T01:22:34.526Z,3.36
2023-12-20T01:23:56.037Z,2.37
2023-12-20T01:25:17.475Z,3.22
2023-12-20T01:26:39.220Z,3.26
2023-12-20T01:28:00.655Z,3.47
2023-12-20T01:29:22.037Z,2.95
2023-12-20T01:30:43.655Z,1.94
2023-12-20T01:32:06.167Z,2.59
2023-12-20T01:33:27.924Z,3.89
2023-12-20T01:34:50.285Z,2.00
2023-12-20T01:36:12.423Z,3.79
2023-12-20T01:37:36.139Z,2.46
2023-12-20T01:38:57.652Z,3.43
2023-12-20T01:40:21.054Z,3.13
2023-12-20T01:41:42.504Z,4.20
2023-12-20T01:44:20.725Z,2.51
2023-12-20T01:45:42.331Z,2.04
2023-12-20T01:47:04.445Z,2.27
2023-12-20T01:48:26.018Z,2.21
2023-12-20T01:49:47.559Z,2.31
2023-12-20T01:51:08.896Z,2.26
2023-12-20T01:52:30.428Z,3.05
2023-12-20T01:53:51.883Z,3.26
2023-12-20T01:55:13.083Z,3.37
2023-12-20T01:56:34.539Z,2.39
2023-12-20T01:57:56.142Z,3.46
2023-12-20T01:59:18.577Z,3.61
2023-12-20T02:00:39.857Z,3.00
2023-12-20T02:02:01.669Z,2.34
2023-12-20T02:03:23.390Z,2.64
2023-12-20T02:04:44.776Z,3.19
2023-12-20T02:06:06.513Z,4.23
2023-12-20T02:07:27.721Z,2.78
2023-12-20T02:08:50.559Z,4.52
2023-12-20T02:10:12.629Z,5.79
2023-12-20T02:11:33.968Z,4.99
2023-12-20T02:12:55.104Z,3.65
2023-12-20T02:14:16.527Z,3.32
2023-12-20T02:15:38.351Z,4.92
2023-12-20T02:17:00.073Z,3.96
2023-12-20T02:18:21.775Z,2.26
2023-12-20T02:19:43.972Z,6.44
2023-12-20T02:21:06.262Z,2.04
2023-12-20T02:22:27.746Z,2.69
2023-12-20T02:23:50.976Z,2.67
2023-12-20T02:26:34.599Z,4.67
2023-12-20T02:27:56.056Z,5.14
2023-12-20T02:29:17.033Z,2.59
2023-12-20T02:30:38.518Z,3.16
2023-12-20T02:32:02.215Z,3.92
2023-12-20T02:33:23.779Z,3.44
2023-12-20T02:34:46.474Z,3.47
2023-12-20T02:37:29.458Z,2.59
2023-12-20T02:38:51.257Z,3.36
2023-12-20T02:40:14.535Z,2.31
2023-12-20T02:41:36.205Z,2.71
2023-12-20T02:42:57.594Z,2.43
2023-12-20T02:44:19.168Z,2.55
2023-12-20T02:45:42.014Z,2.77
2023-12-20T02:47:03.423Z,4.63
2023-12-20T02:48:24.642Z,2.94
2023-12-20T02:49:46.305Z,2.91
2023-12-20T02:51:07.473Z,3.03
2023-12-20T02:52:29.559Z,2.08
2023-12-20T02:53:50.626Z,3.47
2023-12-20T02:55:12.123Z,2.42
2023-12-20T02:56:33.760Z,3.34
2023-12-20T02:57:55.130Z,2.87
2023-12-20T02:59:16.855Z,4.56
2023-12-20T03:00:38.546Z,2.79
2023-12-20T03:02:00.367Z,3.08
2023-12-20T03:03:21.988Z,3.74
2023-12-20T03:04:43.315Z,3.14
2023-12-20T03:06:04.933Z,2.75
2023-12-20T03:07:26.143Z,4.89
2023-12-20T03:08:49.390Z,4.83
2023-12-20T03:10:19.442Z,4.91
2023-12-20T03:12:55.610Z,65.62
2023-12-20T03:14:17.004Z,19.05
2023-12-20T03:15:38.335Z,20.59
2023-12-20T03:17:00.824Z,9.37
2023-12-20T03:18:22.455Z,18.07
2023-12-20T03:19:44.062Z,8.28
2023-12-20T03:21:05.695Z,10.38
2023-12-20T03:22:27.213Z,13.68
2023-12-20T03:23:48.465Z,20.06
2023-12-20T03:25:10.065Z,14.81
2023-12-20T03:26:31.676Z,7.48
2023-12-20T03:27:53.182Z,9.99
2023-12-20T03:29:14.206Z,12.13
2023-12-20T03:30:35.967Z,13.82
2023-12-20T03:31:57.222Z,20.25
2023-12-20T03:33:18.601Z,10.09
2023-12-20T03:34:40.127Z,7.11
2023-12-20T03:36:01.404Z,14.15
2023-12-20T03:37:24.600Z,9.32
2023-12-20T03:40:07.651Z,8.96
2023-12-20T03:41:29.146Z,6.78
2023-12-20T03:42:50.302Z,9.30
2023-12-20T03:44:11.688Z,8.49
2023-12-20T03:45:33.047Z,21.47
2023-12-20T03:46:54.365Z,39.08
2023-12-20T03:48:15.659Z,8.71
2023-12-20T03:49:37.547Z,19.03
2023-12-20T03:50:59.272Z,20.56
2023-12-20T03:52:20.429Z,13.11
2023-12-20T03:53:41.853Z,5.21
2023-12-20T03:55:03.541Z,4.29
2023-12-20T03:56:26.717Z,6.97
2023-12-20T03:57:49.273Z,8.44
2023-12-20T03:59:10.482Z,14.22
2023-12-20T04:00:32.233Z,16.68
2023-12-20T04:01:54.826Z,8.87
2023-12-20T04:03:16.344Z,6.78
2023-12-20T04:04:37.943Z,11.88
2023-12-20T04:05:59.426Z,6.51
2023-12-20T04:07:20.800Z,8.64
2023-12-20T04:08:42.130Z,4.17
2023-12-20T04:10:04.493Z,4.64
2023-12-20T04:11:25.907Z,4.72
2023-12-20T04:12:47.440Z,4.06
2023-12-20T04:14:08.847Z,3.33
2023-12-20T04:15:29.822Z,4.47
2023-12-20T04:16:52.027Z,8.84
2023-12-20T04:18:13.315Z,3.01
2023-12-20T04:19:34.751Z,4.96
2023-12-20T04:20:57.882Z,2.73
2023-12-20T04:22:19.152Z,3.39
2023-12-20T04:23:40.348Z,4.83
2023-12-20T04:25:01.657Z,4.59
2023-12-20T04:26:23.941Z,3.69
2023-12-20T04:27:45.747Z,4.75
2023-12-20T04:29:06.912Z,7.52
2023-12-20T04:30:30.333Z,9.42
2023-12-20T04:31:51.799Z,8.33
2023-12-20T04:33:13.389Z,5.76
2023-12-20T04:34:34.692Z,9.34
2023-12-20T04:35:56.127Z,24.81
2023-12-20T04:37:17.637Z,20.55
2023-12-20T04:38:39.352Z,7.94
2023-12-20T04:40:00.761Z,12.89
2023-12-20T04:41:22.302Z,17.56
2023-12-20T04:42:43.569Z,10.83
2023-12-20T04:44:04.906Z,13.93
2023-12-20T04:45:26.578Z,9.99
2023-12-20T04:46:50.992Z,8.28
2023-12-20T04:48:12.721Z,8.57
2023-12-20T04:49:34.039Z,9.48
2023-12-20T04:50:55.219Z,6.28
2023-12-20T04:52:16.352Z,5.74
2023-12-20T04:54:47.351Z,6.35
2023-12-20T04:56:10.068Z,5.74
2023-12-20T04:57:31.211Z,5.26
2023-12-20T04:58:52.462Z,9.44
2023-12-20T05:00:14.701Z,6.92
2023-12-20T05:01:36.217Z,10.99
2023-12-20T05:02:57.822Z,12.53
2023-12-20T05:04:19.978Z,14.09
2023-12-20T05:05:42.857Z,11.99
2023-12-20T05:07:04.687Z,12.07
2023-12-20T05:08:25.902Z,17.24
2023-12-20T05:09:47.645Z,12.45
2023-12-20T05:11:09.042Z,10.39
2023-12-20T05:12:30.741Z,9.69
2023-12-20T05:13:53.103Z,15.85
2023-12-20T05:15:14.737Z,11.69
2023-12-20T05:16:36.565Z,10.69
2023-12-20T05:17:58.002Z,15.28
2023-12-20T05:19:21.099Z,11.47
2023-12-20T05:22:03.839Z,8.13
2023-12-20T05:23:25.217Z,6.91
2023-12-20T05:24:46.436Z,10.55
2023-12-20T05:26:08.431Z,14.34
2023-12-20T05:27:30.275Z,8.84
2023-12-20T05:28:51.515Z,13.03
2023-12-20T05:30:14.141Z,13.91
2023-12-20T05:31:35.623Z,9.94
2023-12-20T05:32:56.957Z,10.53
2023-12-20T05:34:19.710Z,4.53
2023-12-20T05:35:41.800Z,5.79
2023-12-20T05:37:05.324Z,5.67
2023-12-20T05:38:27.323Z,5.99
2023-12-20T05:39:48.609Z,6.46
2023-12-20T05:41:10.269Z,7.39
2023-12-20T05:42:31.562Z,5.56
2023-12-20T05:43:54.414Z,6.94
2023-12-20T05:45:15.772Z,11.53
2023-12-20T05:46:37.378Z,6.31
2023-12-20T05:47:58.441Z,6.66
2023-12-20T05:49:20.487Z,8.96
2023-12-20T05:50:42.087Z,7.73
2023-12-20T05:52:04.421Z,7.99
2023-12-20T05:53:27.755Z,9.99
2023-12-20T05:54:48.894Z,9.13
2023-12-20T05:56:11.829Z,7.69
2023-12-20T05:57:36.343Z,8.34
2023-12-20T05:58:58.386Z,6.69
2023-12-20T06:00:21.191Z,7.77
2023-12-20T06:01:42.639Z,9.04
2023-12-20T06:03:04.526Z,12.67
2023-12-20T06:04:25.637Z,18.49
2023-12-20T06:05:47.000Z,9.63
2023-12-20T06:07:09.050Z,19.43
2023-12-20T06:08:30.702Z,35.28
2023-12-20T06:09:52.079Z,31.08
2023-12-20T06:11:13.439Z,15.48
2023-12-20T06:12:34.689Z,8.49
2023-12-20T06:13:55.844Z,12.31
2023-12-20T06:15:17.805Z,6.93
2023-12-20T06:16:40.325Z,6.34
2023-12-20T06:18:01.818Z,4.72
2023-12-20T06:19:23.310Z,6.12
2023-12-20T06:20:45.267Z,9.21
2023-12-20T06:22:06.433Z,11.51
2023-12-20T06:23:27.899Z,11.51
2023-12-20T06:24:50.563Z,17.48
2023-12-20T06:26:12.901Z,33.84
2023-12-20T06:27:34.279Z,27.81
2023-12-20T06:28:55.603Z,19.02
2023-12-20T06:30:18.611Z,18.57
2023-12-20T06:31:40.596Z,18.13
2023-12-20T06:33:02.974Z,11.96
2023-12-20T06:34:24.095Z,19.82
2023-12-20T06:35:45.388Z,13.13
2023-12-20T06:37:06.750Z,17.15
2023-12-20T06:38:29.026Z,13.55
2023-12-20T06:39:50.357Z,8.53
2023-12-20T06:41:14.671Z,13.58
2023-12-20T06:42:43.149Z,12.22
2023-12-20T06:45:21.322Z,9.42
2023-12-20T06:46:43.428Z,13.45
2023-12-20T06:48:05.849Z,9.36
2023-12-20T06:49:27.004Z,7.21
2023-12-20T06:50:48.591Z,7.44
2023-12-20T06:52:10.160Z,5.92
2023-12-20T06:54:44.117Z,7.42
2023-12-20T06:56:06.313Z,8.92
2023-12-20T06:57:27.987Z,7.47
2023-12-20T06:58:50.427Z,8.43
2023-12-20T07:00:14.885Z,5.49
2023-12-20T07:01:36.413Z,7.38
2023-12-20T07:02:58.887Z,8.67
2023-12-20T07:04:20.299Z,8.14
2023-12-20T07:05:41.985Z,10.66
2023-12-20T07:07:03.826Z,15.79
2023-12-20T07:08:25.454Z,14.04
2023-12-20T07:09:46.940Z,15.82
2023-12-20T07:11:08.512Z,15.27
2023-12-20T07:12:29.768Z,16.37
2023-12-20T07:13:55.131Z,11.19
2023-12-20T07:15:16.538Z,8.84
2023-12-20T07:16:38.353Z,9.45
2023-12-20T07:18:01.791Z,10.38
2023-12-20T07:19:23.151Z,10.01
2023-12-20T07:20:44.799Z,9.73
2023-12-20T07:22:08.906Z,9.97
2023-12-20T07:23:33.477Z,10.42
2023-12-20T07:24:54.913Z,8.60
2023-12-20T07:26:18.042Z,13.32
2023-12-20T07:27:41.228Z,21.04
2023-12-20T07:29:02.819Z,17.53
2023-12-20T07:30:25.016Z,15.39
2023-12-20T07:31:46.390Z,14.11
2023-12-20T07:33:09.641Z,15.48
2023-12-20T07:34:30.974Z,13.94
2023-12-20T07:35:53.034Z,15.19
2023-12-20T07:37:15.000Z,12.59
2023-12-20T07:38:36.622Z,9.54
2023-12-20T07:39:59.455Z,13.54
2023-12-20T07:41:20.615Z,9.99
2023-12-20T07:42:42.073Z,16.36
2023-12-20T07:44:12.749Z,11.46
2023-12-20T07:45:34.428Z,15.95
2023-12-20T07:46:57.958Z,17.17
2023-12-20T07:48:19.894Z,15.65
2023-12-20T07:49:41.724Z,12.86
2023-12-20T07:51:04.457Z,10.99
2023-12-20T07:52:26.560Z,15.43
2023-12-20T07:53:49.126Z,11.68
2023-12-20T07:55:10.797Z,9.39
2023-12-20T07:56:32.367Z,10.77
2023-12-20T07:57:55.600Z,11.05
2023-12-20T08:00:40.607Z,10.66
2023-12-20T08:02:02.376Z,9.59
2023-12-20T08:03:24.882Z,12.98
2023-12-20T08:04:46.391Z,9.09
2023-12-20T08:06:09.262Z,9.41
2023-12-20T08:07:31.820Z,10.38
2023-12-20T08:08:58.634Z,9.14
2023-12-20T08:10:16.575Z,11.87
2023-12-20T08:11:38.714Z,9.32
2023-12-20T08:13:00.108Z,12.05
2023-12-20T08:14:22.609Z,9.31
2023-12-20T08:15:44.064Z,7.23
2023-12-20T08:17:05.723Z,9.07
2023-12-20T08:18:27.426Z,7.63
2023-12-20T08:19:49.248Z,4.86
2023-12-20T08:21:13.196Z,5.24
2023-12-20T08:22:34.937Z,4.99
2023-12-20T08:23:56.567Z,6.86
2023-12-20T08:25:18.874Z,4.68
2023-12-20T08:26:40.410Z,6.41
2023-12-20T08:28:06.246Z,8.88
2023-12-20T08:29:29.213Z,6.32
2023-12-20T08:30:51.885Z,6.41
2023-12-20T08:32:15.951Z,4.92
2023-12-20T08:33:37.788Z,12.69
2023-12-20T08:34:59.554Z,17.89
2023-12-20T08:36:21.417Z,12.44
2023-12-20T08:37:42.813Z,47.78
2023-12-20T08:39:03.957Z,7.70
2023-12-20T08:40:25.525Z,6.99
2023-12-20T08:41:47.146Z,4.69
2023-12-20T08:43:08.688Z,3.18
2023-12-20T08:44:30.357Z,4.44
2023-12-20T08:45:51.929Z,4.32
2023-12-20T08:47:13.231Z,3.12
2023-12-20T08:48:34.725Z,2.93
2023-12-20T08:49:56.129Z,2.56
2023-12-20T08:51:17.505Z,4.22
2023-12-20T08:52:38.851Z,4.81
2023-12-20T08:54:03.683Z,3.89
2023-12-20T08:55:25.213Z,3.20
2023-12-20T08:56:46.946Z,3.45
2023-12-20T08:58:08.328Z,3.38
2023-12-20T08:59:29.537Z,4.06
2023-12-20T09:00:51.158Z,5.17
2023-12-20T09:02:12.854Z,4.94
2023-12-20T09:03:34.263Z,3.47
2023-12-20T09:04:56.194Z,7.37
2023-12-20T09:06:18.734Z,3.96
2023-12-20T09:07:40.375Z,5.76
2023-12-20T09:09:01.922Z,4.64
2023-12-20T09:10:24.761Z,4.58
2023-12-20T09:11:46.188Z,3.93
2023-12-20T09:13:07.446Z,5.82
2023-12-20T09:14:28.978Z,6.17
2023-12-20T09:15:50.698Z,4.84
2023-12-20T09:17:12.626Z,4.08
2023-12-20T09:18:34.062Z,3.68
2023-12-20T09:19:55.730Z,2.99
2023-12-20T09:21:17.870Z,3.99
2023-12-20T09:22:39.668Z,2.92
2023-12-20T09:24:00.988Z,3.37
2023-12-20T09:25:22.535Z,2.81
2023-12-20T09:26:44.323Z,2.77
2023-12-20T09:28:05.887Z,4.38
2023-12-20T09:29:27.728Z,3.19
2023-12-20T09:30:49.514Z,3.97
2023-12-20T09:32:11.314Z,4.94
2023-12-20T09:33:35.821Z,4.49
2023-12-20T09:34:59.322Z,3.41
2023-12-20T09:36:22.774Z,3.18
2023-12-20T09:37:44.130Z,4.44
2023-12-20T09:39:07.657Z,3.73
2023-12-20T09:40:30.213Z,3.22
2023-12-20T09:42:03.841Z,8.94
2023-12-20T09:43:25.522Z,3.22
2023-12-20T09:44:48.080Z,3.88
2023-12-20T09:46:11.294Z,2.49
2023-12-20T09:47:32.785Z,2.88
2023-12-20T09:48:54.206Z,2.11
2023-12-20T09:50:16.047Z,1.76
2023-12-20T09:51:37.391Z,3.47
2023-12-20T09:53:01.826Z,2.85
2023-12-20T09:55:42.274Z,7.53
2023-12-20T09:57:04.869Z,4.17
2023-12-20T09:58:27.508Z,2.51
2023-12-20T09:59:49.366Z,2.71
2023-12-20T10:01:11.636Z,3.19
2023-12-20T10:02:33.505Z,2.92
2023-12-20T10:03:57.050Z,2.48
2023-12-20T10:05:19.092Z,2.67
2023-12-20T10:07:59.035Z,3.93
2023-12-20T10:09:20.567Z,4.89
2023-12-20T10:10:46.054Z,2.77
2023-12-20T10:12:06.539Z,3.64
2023-12-20T10:13:28.339Z,5.34
2023-12-20T10:14:51.232Z,4.02
2023-12-20T10:16:14.264Z,3.89
2023-12-20T10:17:35.567Z,3.54
2023-12-20T10:18:57.149Z,3.93
2023-12-20T10:20:20.811Z,5.84
2023-12-20T10:21:42.544Z,4.03
2023-12-20T10:23:03.990Z,3.63
2023-12-20T10:24:26.452Z,3.77
2023-12-20T10:25:59.015Z,2.84
2023-12-20T10:27:20.898Z,4.32
2023-12-20T10:28:42.030Z,4.33
2023-12-20T10:30:04.180Z,3.24
2023-12-20T10:31:28.247Z,3.14
2023-12-20T10:32:49.903Z,4.26
2023-12-20T10:34:11.153Z,4.25
2023-12-20T10:35:32.703Z,4.53
2023-12-20T10:36:54.341Z,5.37
2023-12-20T10:38:15.617Z,4.37
2023-12-20T10:39:36.962Z,4.49
2023-12-20T10:40:58.920Z,3.36
2023-12-20T10:42:21.013Z,3.02
2023-12-20T10:43:42.420Z,4.27
2023-12-20T10:45:04.667Z,4.85
2023-12-20T10:46:28.183Z,3.54
2023-12-20T10:47:50.297Z,4.56
2023-12-20T10:49:11.788Z,1.21
2023-12-20T10:50:33.636Z,2.89
2023-12-20T10:51:55.047Z,4.18
2023-12-20T10:53:16.499Z,3.59
2023-12-20T10:54:37.934Z,2.82
2023-12-20T10:56:00.340Z,2.59
2023-12-20T10:57:21.724Z,1.87
2023-12-20T10:58:43.248Z,2.58
2023-12-20T11:00:05.532Z,2.47
2023-12-20T11:01:26.744Z,2.68
2023-12-20T11:02:49.830Z,3.96
2023-12-20T11:04:14.770Z,3.71
2023-12-20T11:07:11.461Z,4.76
2023-12-20T11:08:41.930Z,6.51
2023-12-20T11:10:13.018Z,2.98
2023-12-20T11:11:52.561Z,3.66
2023-12-20T11:14:48.672Z,4.08
2023-12-20T11:16:12.485Z,3.26
2023-12-20T11:17:37.273Z,8.38
2023-12-20T11:18:58.692Z,2.82
2023-12-20T11:21:44.617Z,4.50
2023-12-20T11:23:06.639Z,3.31
2023-12-20T11:24:27.940Z,3.24
2023-12-20T11:25:56.372Z,4.13
2023-12-20T11:27:18.939Z,3.64
2023-12-20T11:28:40.479Z,4.75
2023-12-20T11:30:04.055Z,7.86
2023-12-20T11:31:25.804Z,3.10
2023-12-20T11:32:47.304Z,2.33
2023-12-20T11:34:17.889Z,3.01
2023-12-20T11:35:39.160Z,3.53
2023-12-20T11:37:01.010Z,3.41
2023-12-20T11:38:22.052Z,3.01
2023-12-20T11:39:43.763Z,2.27
2023-12-20T11:41:08.561Z,2.12
2023-12-20T11:42:36.256Z,2.24
2023-12-20T11:43:57.861Z,2.87
2023-12-20T11:45:21.660Z,2.68
2023-12-20T11:46:42.941Z,2.86
2023-12-20T11:48:04.628Z,2.57
2023-12-20T11:49:25.969Z,3.62
2023-12-20T11:50:47.449Z,3.87
2023-12-20T11:52:08.639Z,6.01
2023-12-20T11:53:31.599Z,3.76
2023-12-20T11:54:53.107Z,4.14
2023-12-20T11:56:14.652Z,3.09
2023-12-20T11:57:37.399Z,3.21
2023-12-20T11:59:09.895Z,3.99
2023-12-20T12:00:24.751Z,4.13
2023-12-20T12:01:49.521Z,2.72
2023-12-20T12:03:13.532Z,3.06
2023-12-20T12:04:35.176Z,2.41
2023-12-20T12:05:56.667Z,2.90
2023-12-20T12:07:18.011Z,2.83
2023-12-20T12:08:39.512Z,2.52
2023-12-20T12:10:02.414Z,3.56
2023-12-20T12:12:44.986Z,3.39
2023-12-20T12:14:07.528Z,2.88
2023-12-20T12:15:29.648Z,2.27
2023-12-20T12:16:50.972Z,2.86
2023-12-20T12:18:18.467Z,3.60
2023-12-20T12:19:40.619Z,5.14
2023-12-20T12:21:02.071Z,3.06
2023-12-20T12:22:23.636Z,3.84
2023-12-20T12:23:45.119Z,3.19
2023-12-20T12:25:13.509Z,2.75
2023-12-20T12:26:36.854Z,3.76
2023-12-20T12:28:01.403Z,4.21
2023-12-20T12:29:22.932Z,4.54
2023-12-20T12:30:58.463Z,5.92
2023-12-20T12:32:19.922Z,3.21
2023-12-20T12:33:41.662Z,3.33
2023-12-20T12:35:06.065Z,4.43
2023-12-20T12:36:29.909Z,3.32
2023-12-20T12:37:51.500Z,2.36
2023-12-20T12:39:13.303Z,2.53
2023-12-20T12:40:35.385Z,3.69
2023-12-20T12:41:57.262Z,5.68
2023-12-20T12:43:18.617Z,5.51
2023-12-20T12:44:39.970Z,4.93
2023-12-20T12:46:01.869Z,3.77
2023-12-20T12:47:23.702Z,4.47
2023-12-20T12:48:47.396Z,3.86
2023-12-20T12:50:10.670Z,3.86
2023-12-20T12:51:34.689Z,3.48
2023-12-20T12:52:57.157Z,4.57
2023-12-20T12:54:19.068Z,3.73
2023-12-20T12:55:41.288Z,6.40
2023-12-20T12:57:03.500Z,3.48
2023-12-20T12:58:26.971Z,6.49
2023-12-20T12:59:49.566Z,5.23
2023-12-20T13:01:11.839Z,7.46
2023-12-20T13:02:34.404Z,11.63
2023-12-20T13:03:58.797Z,12.27
2023-12-20T13:05:22.100Z,22.33
2023-12-20T13:06:45.452Z,19.93
2023-12-20T13:08:08.139Z,22.77
2023-12-20T13:09:30.925Z,18.71
2023-12-20T13:12:16.263Z,13.88
2023-12-20T13:13:37.666Z,13.11
2023-12-20T13:14:59.024Z,8.48
2023-12-20T13:16:21.214Z,8.99
2023-12-20T13:17:45.886Z,10.59
2023-12-20T13:19:08.877Z,12.49
2023-12-20T13:21:48.071Z,14.76
2023-12-20T13:24:34.861Z,6.86
2023-12-20T13:25:56.915Z,9.68
2023-12-20T13:27:18.990Z,9.02
2023-12-20T13:28:41.641Z,7.18
2023-12-20T13:30:04.780Z,7.13
2023-12-20T13:31:27.331Z,6.93
2023-12-20T13:32:49.534Z,11.54
2023-12-20T13:34:11.927Z,8.76
2023-12-20T13:35:35.596Z,11.93
2023-12-20T13:36:59.081Z,7.81
2023-12-20T13:38:22.684Z,12.39
2023-12-20T13:39:45.271Z,15.11
2023-12-20T13:41:07.395Z,9.25
2023-12-20T13:42:29.829Z,6.62
2023-12-20T13:43:52.584Z,8.26
2023-12-20T13:45:15.032Z,12.61
2023-12-20T13:46:37.973Z,10.03
2023-12-20T13:48:00.635Z,14.86
2023-12-20T13:49:22.878Z,11.08
2023-12-20T13:50:46.858Z,12.59
2023-12-20T13:52:09.342Z,9.19
2023-12-20T13:53:32.070Z,10.32
2023-12-20T13:54:54.527Z,8.85
2023-12-20T13:57:49.672Z,9.53
2023-12-20T13:59:02.857Z,9.74
2023-12-20T14:00:25.655Z,8.85
2023-12-20T14:01:48.178Z,14.69
2023-12-20T14:03:10.634Z,10.52
2023-12-20T14:04:41.532Z,18.18
2023-12-20T14:05:57.257Z,13.76
2023-12-20T14:07:19.763Z,13.11
2023-12-20T14:08:42.745Z,15.62
2023-12-20T14:10:05.692Z,6.19
2023-12-20T14:11:27.994Z,5.38
2023-12-20T14:12:50.295Z,5.25
2023-12-20T14:14:15.828Z,6.96
2023-12-20T14:15:37.906Z,4.12
2023-12-20T14:17:02.311Z,4.96
2023-12-20T14:18:24.120Z,7.39
2023-12-20T14:19:45.572Z,4.19
2023-12-20T14:21:07.282Z,5.28
2023-12-20T14:22:28.943Z,7.01
2023-12-20T14:23:50.478Z,5.49
2023-12-20T14:25:13.828Z,4.31
2023-12-20T14:26:35.180Z,5.18
2023-12-20T14:27:56.966Z,4.73
2023-12-20T14:29:20.516Z,5.17
2023-12-20T14:30:41.648Z,5.64
2023-12-20T14:32:04.255Z,4.08
2023-12-20T14:33:27.384Z,5.92
2023-12-20T14:34:51.149Z,11.99
2023-12-20T14:36:15.411Z,6.84
2023-12-20T14:37:38.071Z,3.39
2023-12-20T14:38:59.981Z,6.90
2023-12-20T14:40:22.818Z,8.59
2023-12-20T14:41:45.389Z,5.25
2023-12-20T14:43:10.058Z,6.08
2023-12-20T14:44:32.211Z,5.69
2023-12-20T14:45:54.094Z,10.98
2023-12-20T14:47:15.942Z,9.67
2023-12-20T14:48:38.186Z,9.87
2023-12-20T14:50:01.464Z,9.31
2023-12-20T14:51:23.481Z,12.19
2023-12-20T14:52:47.583Z,10.22
2023-12-20T14:54:09.410Z,8.96
2023-12-20T14:55:31.764Z,10.64
2023-12-20T14:56:55.777Z,10.88
2023-12-20T14:58:19.678Z,10.46
2023-12-20T14:59:42.138Z,12.86
2023-12-20T15:01:06.378Z,22.99
2023-12-20T15:02:28.481Z,19.47
2023-12-20T15:05:13.240Z,19.18
2023-12-20T15:06:37.680Z,19.55
2023-12-20T15:08:00.362Z,16.91
2023-12-20T15:09:22.593Z,19.76
2023-12-20T15:10:44.970Z,17.75
2023-12-20T15:12:06.850Z,24.46
2023-12-20T15:13:28.577Z,17.49
2023-12-20T15:14:49.952Z,12.94
2023-12-20T15:16:12.756Z,10.23
2023-12-20T15:17:34.197Z,10.41
2023-12-20T15:18:55.752Z,9.14
2023-12-20T15:20:18.341Z,8.67
2023-12-20T15:21:41.023Z,8.83
2023-12-20T15:23:04.977Z,8.26
2023-12-20T15:24:26.105Z,7.93
2023-12-20T15:25:47.604Z,5.42
2023-12-20T15:27:08.583Z,5.93
2023-12-20T15:28:30.963Z,4.76
2023-12-20T15:29:53.379Z,5.93
2023-12-20T15:31:14.637Z,6.28
2023-12-20T15:32:36.108Z,5.51
2023-12-20T15:33:57.528Z,5.02
2023-12-20T15:35:19.210Z,4.93
2023-12-20T15:36:43.529Z,4.94
2023-12-20T15:38:04.825Z,5.23
2023-12-20T15:39:26.180Z,5.59
2023-12-20T15:40:47.800Z,4.34
2023-12-20T15:42:09.042Z,4.56
2023-12-20T15:43:31.094Z,5.64
2023-12-20T15:44:53.541Z,5.18
2023-12-20T15:46:15.719Z,6.23
2023-12-20T15:47:39.146Z,6.92
2023-12-20T15:49:02.018Z,4.99
2023-12-20T15:50:26.127Z,6.55
2023-12-20T15:51:48.827Z,5.53
2023-12-20T15:53:11.782Z,8.47
2023-12-20T15:54:34.080Z,7.69
2023-12-20T15:55:56.229Z,6.70
2023-12-20T15:57:18.645Z,4.64
2023-12-20T15:58:40.702Z,3.50
2023-12-20T16:00:05.183Z,5.05
2023-12-20T16:01:28.456Z,4.45
2023-12-20T16:02:52.602Z,4.53
2023-12-20T16:04:15.167Z,5.99
2023-12-20T16:05:37.377Z,5.49
2023-12-20T16:06:59.614Z,4.76
2023-12-20T16:08:23.686Z,5.11
2023-12-20T16:09:48.410Z,4.87
2023-12-20T16:11:11.182Z,4.24
2023-12-20T16:12:33.489Z,5.28
2023-12-20T16:13:55.903Z,5.73
2023-12-20T16:15:18.291Z,6.41
2023-12-20T16:16:41.103Z,3.85
2023-12-20T16:18:03.893Z,7.17
2023-12-20T16:19:25.928Z,5.94
2023-12-20T16:20:48.572Z,4.35
2023-12-20T16:22:10.597Z,2.89
2023-12-20T16:23:33.111Z,5.55
2023-12-20T16:24:55.394Z,5.27
2023-12-20T16:26:18.319Z,3.96
2023-12-20T16:27:40.535Z,20.84
2023-12-20T16:29:02.549Z,6.98
2023-12-20T16:30:29.183Z,4.75
2023-12-20T16:31:52.113Z,5.52
2023-12-20T16:33:14.051Z,5.68
2023-12-20T16:34:36.911Z,4.56
2023-12-20T16:36:01.549Z,4.53
2023-12-20T16:37:24.146Z,4.71
2023-12-20T16:38:47.274Z,5.41
2023-12-20T16:40:15.494Z,4.68
2023-12-20T16:41:37.600Z,4.24
2023-12-20T16:43:00.178Z,3.24
2023-12-20T16:45:44.514Z,3.92
2023-12-20T16:47:06.699Z,5.06
2023-12-20T16:48:30.244Z,4.94
2023-12-20T16:49:55.179Z,5.03
2023-12-20T16:51:18.021Z,4.84
2023-12-20T16:52:40.326Z,3.86
2023-12-20T16:54:02.145Z,2.80
2023-12-20T16:55:24.472Z,4.27
2023-12-20T16:56:48.380Z,3.73
2023-12-20T16:58:11.983Z,5.12
2023-12-20T16:59:34.498Z,4.92
2023-12-20T17:00:56.821Z,1.89
2023-12-20T17:02:20.269Z,2.12
2023-12-20T17:03:42.374Z,2.71
2023-12-20T17:05:04.650Z,2.93
2023-12-20T17:06:31.589Z,2.88
2023-12-20T17:07:54.437Z,3.31
2023-12-20T17:09:17.213Z,3.58
2023-12-20T17:12:01.894Z,3.12
2023-12-20T17:13:24.138Z,2.91
2023-12-20T17:14:46.659Z,6.28
2023-12-20T17:16:09.329Z,2.98
2023-12-20T17:17:32.167Z,3.19
2023-12-20T17:18:54.768Z,3.51
2023-12-20T17:20:19.447Z,3.47
2023-12-20T17:21:41.739Z,3.62
2023-12-20T17:23:05.395Z,3.98
2023-12-20T17:24:28.241Z,3.34
2023-12-20T17:27:17.190Z,3.16
2023-12-20T17:28:39.884Z,3.29
2023-12-20T17:30:02.592Z,3.33
2023-12-20T17:32:48.690Z,4.88
2023-12-20T17:34:10.847Z,3.33
2023-12-20T17:35:33.929Z,3.11
2023-12-20T17:36:59.227Z,4.54
2023-12-20T17:38:22.621Z,2.93
2023-12-20T17:39:44.868Z,2.47
2023-12-20T17:41:09.151Z,3.09
2023-12-20T17:42:33.094Z,3.49
2023-12-20T17:43:55.462Z,3.46
2023-12-20T17:45:18.785Z,2.89
2023-12-20T17:46:41.124Z,3.90
2023-12-20T17:48:09.318Z,3.77
2023-12-20T17:49:32.847Z,2.29
2023-12-20T17:50:55.676Z,3.02
2023-12-20T17:53:40.470Z,2.33
2023-12-20T17:55:03.820Z,2.00
2023-12-20T17:56:26.653Z,2.08
2023-12-20T17:57:52.106Z,6.02
2023-12-20T17:59:15.769Z,4.97
2023-12-20T18:00:39.663Z,2.55
2023-12-20T18:02:04.396Z,2.23
2023-12-20T18:03:27.093Z,2.17
2023-12-20T18:04:49.623Z,1.93
2023-12-20T18:06:14.826Z,2.37
2023-12-20T18:07:37.863Z,2.69
2023-12-20T18:09:02.132Z,2.59
2023-12-20T18:10:25.933Z,3.31
2023-12-20T18:11:48.131Z,2.77
2023-12-20T18:13:11.183Z,3.07
2023-12-20T18:14:32.697Z,2.23
2023-12-20T18:15:55.414Z,2.56
2023-12-20T18:17:17.120Z,3.07
2023-12-20T18:18:38.893Z,2.58
2023-12-20T18:20:03.042Z,2.50
2023-12-20T18:21:26.764Z,2.60
2023-12-20T18:22:49.182Z,2.73
2023-12-20T18:24:13.168Z,2.78
2023-12-20T18:25:38.165Z,2.36
2023-12-20T18:27:03.567Z,3.35
2023-12-20T18:28:26.820Z,2.72
2023-12-20T18:31:14.409Z,2.72
2023-12-20T18:32:36.950Z,2.37
2023-12-20T18:34:01.837Z,2.72
2023-12-20T18:35:27.041Z,1.92
2023-12-20T18:36:49.792Z,2.88
2023-12-20T18:38:12.392Z,3.02
2023-12-20T18:39:36.628Z,3.01
2023-12-20T18:41:00.481Z,2.75
2023-12-20T18:42:24.339Z,2.64
2023-12-20T18:43:48.110Z,3.42
2023-12-20T18:45:12.002Z,2.76
2023-12-20T18:46:34.709Z,2.81
2023-12-20T18:47:59.433Z,3.14